Time;durP1;ratioP1;P1;durP2;ratioP2;P2;SDS_P1;SDS_P2;PMS_P1;PMS_P2;Temp;Humidity;BMP_temperature;BMP_pressure;BME280_temperature;BME280_humidity;BME280_pressure;Samples;Min_cycle;Max_cycle;Signal;HPM_P1;HPM_P2
2021/09/06 00:00:15;;;;;;;26.30;14.23;;;;;;;15.51;74.42;102429.59;5064991;28;20562;-47
2021/09/06 00:02:41;;;;;;;34.58;16.65;;;;;;;15.51;74.89;102423.44;5066441;28;20571;-48
2021/09/06 00:05:09;;;;;;;31.15;16.83;;;;;;;15.47;74.85;102427.78;5065429;28;20233;-48
2021/09/06 00:07:35;;;;;;;29.55;16.08;;;;;;;15.49;74.58;102433.94;5065975;28;20501;-53
2021/09/06 00:10:18;;;;;;;28.60;15.68;;;;;;;15.44;75.02;102428.59;5061496;28;20031;-50
2021/09/06 00:12:43;;;;;;;34.35;17.92;;;;;;;15.40;75.42;102426.78;5070410;28;20024;-47
2021/09/06 00:15:09;;;;;;;29.02;16.27;;;;;;;15.40;74.80;102423.25;5062833;28;20023;-48
2021/09/06 00:17:34;;;;;;;32.95;17.25;;;;;;;15.39;75.00;102426.75;5066580;28;20096;-47
2021/09/06 00:20:00;;;;;;;35.25;18.00;;;;;;;15.35;75.04;102417.03;5064564;28;20042;-47
2021/09/06 00:22:25;;;;;;;35.70;18.17;;;;;;;15.32;75.26;102425.75;5065098;28;20028;-50
2021/09/06 00:24:50;;;;;;;28.90;16.35;;;;;;;15.33;75.04;102422.25;5066882;28;20457;-50
2021/09/06 00:27:16;;;;;;;30.73;16.35;;;;;;;15.29;74.94;102423.06;5049139;28;20534;-48
2021/09/06 00:29:41;;;;;;;33.55;18.58;;;;;;;15.28;75.07;102431.81;5049969;28;20468;-51
2021/09/06 00:32:06;;;;;;;36.88;18.75;;;;;;;15.26;75.21;102425.63;5068859;28;20032;-53
2021/09/06 00:34:32;;;;;;;33.70;18.08;;;;;;;15.23;74.99;102424.69;5066440;28;20028;-47
2021/09/06 00:36:57;;;;;;;31.48;16.77;;;;;;;15.22;74.78;102421.19;5066070;28;20069;-48
2021/09/06 00:39:23;;;;;;;36.00;18.55;;;;;;;15.19;75.35;102425.47;5061376;28;20028;-49
2021/09/06 00:41:48;;;;;;;36.95;18.95;;;;;;;15.19;75.20;102431.63;5064078;28;20077;-50
2021/09/06 00:44:13;;;;;;;30.17;15.88;;;;;;;15.19;75.02;102429.00;5064113;28;20020;-49
2021/09/06 00:46:44;;;;;;;33.17;17.17;;;;;;;15.16;75.26;102422.81;5068327;28;20103;-52
2021/09/06 00:49:11;;;;;;;31.00;15.27;;;;;;;15.16;75.20;102425.44;5063772;28;20024;-49
2021/09/06 00:51:36;;;;;;;30.52;16.75;;;;;;;15.15;75.50;102424.53;5066083;28;20427;-48
2021/09/06 00:54:02;;;;;;;35.40;18.67;;;;;;;15.12;75.26;102421.88;5068340;28;20054;-52
2021/09/06 00:56:27;;;;;;;34.38;18.02;;;;;;;15.13;75.19;102426.25;5047604;28;20032;-49
2021/09/06 00:58:53;;;;;;;34.08;17.45;;;;;;;15.12;75.10;102416.63;5065558;28;20166;-53
2021/09/06 01:01:18;;;;;;;35.63;17.17;;;;;;;15.13;75.28;102421.00;5064602;28;20173;-50
2021/09/06 01:03:43;;;;;;;34.88;17.52;;;;;;;15.10;75.35;102417.44;5069228;28;20285;-49
2021/09/06 01:06:09;;;;;;;34.63;17.17;;;;;;;15.08;75.49;102412.16;5066645;28;20474;-49
2021/09/06 01:08:34;;;;;;;35.38;17.48;;;;;;;15.06;75.56;102413.00;5063844;28;20495;-51
2021/09/06 01:10:59;;;;;;;35.63;17.83;;;;;;;15.07;75.54;102422.63;5064352;28;20464;-52
2021/09/06 01:13:25;;;;;;;36.47;18.55;;;;;;;15.05;75.66;102419.09;5050189;28;20105;-52
2021/09/06 01:15:50;;;;;;;37.42;18.60;;;;;;;15.02;75.65;102420.78;5049287;28;20043;-48
2021/09/06 01:18:16;;;;;;;41.75;20.45;;;;;;;15.01;75.18;102416.38;5073583;28;20940;-48
2021/09/06 01:20:41;;;;;;;40.13;19.92;;;;;;;14.96;75.75;102417.16;5068878;28;20043;-50
2021/09/06 01:23:09;;;;;;;40.92;19.20;;;;;;;14.95;75.64;102423.25;5049601;28;20024;-47
2021/09/06 01:25:35;;;;;;;34.05;16.80;;;;;;;14.94;75.74;102419.75;5064909;28;20871;-50
2021/09/06 01:28:00;;;;;;;34.15;17.42;;;;;;;14.94;75.97;102422.38;5071429;28;20020;-48
2021/09/06 01:30:25;;;;;;;34.70;16.67;;;;;;;14.96;75.86;102414.53;5064891;28;20032;-50
2021/09/06 01:32:51;;;;;;;39.85;19.52;;;;;;;14.95;75.87;102413.66;5071932;28;20028;-48
2021/09/06 01:35:16;;;;;;;34.35;17.60;;;;;;;14.94;75.53;102414.50;5073596;28;20115;-49
2021/09/06 01:37:41;;;;;;;35.40;18.27;;;;;;;14.91;75.96;102411.81;5070245;28;20222;-48
2021/09/06 01:40:07;;;;;;;40.38;19.38;;;;;;;14.89;75.84;102421.41;5067933;28;20108;-47
2021/09/06 01:42:33;;;;;;;35.63;18.60;;;;;;;14.89;75.76;102428.38;5070013;28;20036;-49
2021/09/06 01:45:01;;;;;;;44.17;21.70;;;;;;;14.85;76.31;102422.19;5071309;28;20024;-48
2021/09/06 01:47:26;;;;;;;40.88;20.90;;;;;;;14.95;75.74;102424.16;5065140;28;20028;-48
2021/09/06 01:49:52;;;;;;;42.15;20.33;;;;;;;14.95;76.22;102418.91;5065764;28;20089;-48
2021/09/06 01:52:17;;;;;;;36.47;18.50;;;;;;;15.00;75.62;102419.88;5070098;28;20024;-51
2021/09/06 01:54:43;;;;;;;47.55;22.80;;;;;;;14.97;76.30;102422.44;5071114;28;20157;-52
2021/09/06 01:57:08;;;;;;;44.20;21.00;;;;;;;14.99;76.23;102428.63;5037376;28;20042;-49
2021/09/06 01:59:34;;;;;;;46.10;20.92;;;;;;;15.06;76.13;102423.50;5073691;28;20127;-48
2021/09/06 02:01:59;;;;;;;49.75;22.75;;;;;;;15.11;76.78;102427.97;5066808;28;20031;-51
2021/09/06 02:04:24;;;;;;;50.17;22.83;;;;;;;15.24;76.73;102429.09;5067605;28;20352;-48
2021/09/06 02:06:50;;;;;;;46.60;21.45;;;;;;;15.24;76.38;102431.72;5068402;28;20040;-46
2021/09/06 02:09:15;;;;;;;43.25;21.50;;;;;;;15.24;76.15;102435.25;5063727;28;20031;-52
2021/09/06 02:11:41;;;;;;;39.28;19.67;;;;;;;15.16;75.93;102426.31;5071034;28;20161;-46
2021/09/06 02:14:06;;;;;;;33.47;16.65;;;;;;;15.11;75.83;102424.47;5068649;28;20063;-50
2021/09/06 02:16:31;;;;;;;47.65;21.70;;;;;;;15.08;76.09;102422.66;5049532;28;20399;-46
2021/09/06 02:18:57;;;;;;;36.85;17.70;;;;;;;15.04;75.84;102433.97;5067807;28;20042;-47
2021/09/06 02:21:22;;;;;;;39.25;19.10;;;;;;;15.01;75.97;102426.91;5049540;28;20586;-46
2021/09/06 02:23:47;;;;;;;41.63;20.25;;;;;;;14.97;76.18;102425.06;5065130;28;20385;-48
2021/09/06 02:26:13;;;;;;;40.30;18.70;;;;;;;14.93;76.20;102428.50;5064065;28;20732;-47
2021/09/06 02:28:38;;;;;;;35.28;17.90;;;;;;;14.88;75.95;102429.28;5068596;28;20035;-48
2021/09/06 02:31:03;;;;;;;40.90;19.50;;;;;;;14.85;76.14;102434.44;5069459;28;20326;-48
2021/09/06 02:33:29;;;;;;;36.15;18.15;;;;;;;14.83;76.01;102433.50;5070924;28;20013;-49
2021/09/06 02:35:54;;;;;;;35.20;18.00;;;;;;;14.79;76.26;102431.69;5066483;28;20039;-52
2021/09/06 02:38:19;;;;;;;41.92;20.05;;;;;;;14.74;76.21;102425.47;5069062;28;20169;-48
2021/09/06 02:40:45;;;;;;;40.38;18.63;;;;;;;14.72;76.13;102430.66;5050138;28;20195;-52
2021/09/06 02:43:10;;;;;;;42.47;20.30;;;;;;;14.71;76.61;102431.53;5066119;28;20052;-48
2021/09/06 02:45:36;;;;;;;40.28;19.48;;;;;;;14.72;76.57;102422.78;5047094;28;20680;-49
2021/09/06 02:48:01;;;;;;;43.65;19.52;;;;;;;14.73;76.44;102426.31;5066413;28;20526;-49
2021/09/06 02:50:26;;;;;;;45.00;21.08;;;;;;;14.69;76.79;102429.75;5063367;28;20527;-50
2021/09/06 02:52:53;;;;;;;43.60;20.45;;;;;;;14.70;76.61;102428.88;5072900;28;20030;-48
2021/09/06 02:55:19;;;;;;;42.33;19.63;;;;;;;14.77;76.26;102428.13;5063744;28;20051;-50
2021/09/06 02:57:44;;;;;;;37.72;18.23;;;;;;;14.79;76.34;102432.56;5069153;28;20028;-49
2021/09/06 03:00:10;;;;;;;40.67;20.08;;;;;;;14.75;76.35;102437.75;5065894;28;20494;-50
2021/09/06 03:02:36;;;;;;;47.47;21.63;;;;;;;14.68;76.52;102438.47;5065303;28;20571;-50
2021/09/06 03:05:01;;;;;;;37.47;18.80;;;;;;;14.65;76.46;102439.25;5068520;28;20062;-51
2021/09/06 03:07:27;;;;;;;42.20;20.70;;;;;;;14.60;76.21;102439.19;5066528;28;20032;-50
2021/09/06 03:09:52;;;;;;;38.08;19.35;;;;;;;14.56;76.15;102434.72;5067523;28;20276;-48
2021/09/06 03:12:17;;;;;;;42.75;20.15;;;;;;;14.55;76.29;102432.06;5069310;28;20032;-47
2021/09/06 03:14:43;;;;;;;42.20;20.02;;;;;;;14.52;76.51;102435.47;5068582;28;20028;-49
2021/09/06 03:17:08;;;;;;;38.35;18.20;;;;;;;14.53;76.27;102432.00;5066964;28;20024;-48
2021/09/06 03:19:33;;;;;;;39.05;18.23;;;;;;;14.53;76.48;102434.63;5067227;28;20043;-49
2021/09/06 03:21:59;;;;;;;37.20;17.38;;;;;;;14.51;76.38;102436.38;5068442;28;21055;-48
2021/09/06 03:24:24;;;;;;;37.72;18.85;;;;;;;14.48;76.64;102428.41;5065657;28;20471;-50
2021/09/06 03:26:50;;;;;;;40.00;19.13;;;;;;;14.48;76.29;102424.91;5067924;28;20819;-52
2021/09/06 03:29:15;;;;;;;38.47;18.38;;;;;;;14.49;76.54;102427.56;5047031;28;20032;-52
2021/09/06 03:31:41;;;;;;;39.80;18.30;;;;;;;14.48;76.49;102430.16;5068176;28;20019;-46
2021/09/06 03:34:06;;;;;;;39.40;18.35;;;;;;;14.44;76.48;102429.19;5069251;28;20413;-50
2021/09/06 03:36:32;;;;;;;35.28;17.70;;;;;;;14.44;76.37;102425.69;5061972;28;20024;-49
2021/09/06 03:38:57;;;;;;;39.97;18.73;;;;;;;14.42;76.22;102425.66;5067345;28;20036;-51
2021/09/06 03:41:23;;;;;;;40.50;19.60;;;;;;;14.37;76.80;102424.66;5065768;28;20513;-51
2021/09/06 03:43:49;;;;;;;36.67;17.83;;;;;;;14.40;76.69;102426.44;5070025;28;20051;-53
2021/09/06 03:46:16;;;;;;;39.30;18.70;;;;;;;14.37;76.61;102429.00;5068759;28;20020;-48
2021/09/06 03:48:41;;;;;;;40.13;18.05;;;;;;;14.34;76.29;102428.91;5067863;28;20338;-50
2021/09/06 03:51:07;;;;;;;37.10;18.05;;;;;;;14.33;76.25;102425.44;5066878;28;20588;-50
2021/09/06 03:53:32;;;;;;;39.95;20.23;;;;;;;14.30;76.49;102427.06;5067043;28;20074;-47
2021/09/06 03:55:58;;;;;;;43.22;20.45;;;;;;;14.26;76.63;102423.50;5063661;28;20027;-48
2021/09/06 03:58:23;;;;;;;42.03;19.90;;;;;;;14.24;76.61;102427.81;5063544;28;20036;-50
2021/09/06 04:00:48;;;;;;;37.88;19.30;;;;;;;14.21;76.70;102433.88;5069034;28;20521;-52
2021/09/06 04:03:14;;;;;;;40.55;17.02;;;;;;;14.20;76.34;102429.50;5050603;28;20136;-47
2021/09/06 04:05:39;;;;;;;41.58;19.92;;;;;;;14.19;76.42;102426.84;5063156;28;20435;-47
2021/09/06 04:08:05;;;;;;;42.35;19.95;;;;;;;14.16;77.22;102432.00;5067580;28;20312;-47
2021/09/06 04:10:31;;;;;;;40.55;18.20;;;;;;;14.14;76.52;102433.72;5052305;28;20522;-48
2021/09/06 04:12:57;;;;;;;41.28;19.65;;;;;;;14.12;76.48;102431.06;5067833;28;20111;-50
2021/09/06 04:15:22;;;;;;;37.15;18.17;;;;;;;14.11;76.16;102441.50;5066008;28;20020;-47
2021/09/06 04:17:47;;;;;;;39.20;18.73;;;;;;;14.07;76.57;102434.41;5064611;28;20443;-50
2021/09/06 04:20:13;;;;;;;38.92;17.75;;;;;;;14.08;76.43;102430.94;5063634;28;20507;-50
2021/09/06 04:22:39;;;;;;;38.10;17.83;;;;;;;14.12;76.39;102427.53;5065903;28;20590;-49
2021/09/06 04:25:06;;;;;;;34.55;17.20;;;;;;;14.12;76.45;102432.78;5069648;28;20064;-48
2021/09/06 04:27:31;;;;;;;33.92;16.55;;;;;;;14.15;76.48;102440.72;5065749;28;20119;-50
2021/09/06 04:29:57;;;;;;;35.75;17.52;;;;;;;14.13;76.52;102439.81;5065204;28;20434;-48
2021/09/06 04:32:22;;;;;;;30.38;15.70;;;;;;;14.07;76.44;102440.56;5051409;28;20131;-47
2021/09/06 04:34:47;;;;;;;30.42;15.18;;;;;;;14.05;76.07;102449.22;5064029;28;20028;-48
2021/09/06 04:37:13;;;;;;;29.15;14.73;;;;;;;14.02;76.24;102446.53;5068067;28;20048;-47
2021/09/06 04:39:38;;;;;;;36.33;16.42;;;;;;;13.98;76.17;102445.56;5047454;28;20069;-47
2021/09/06 04:42:03;;;;;;;29.70;15.13;;;;;;;13.95;76.28;102442.00;5051741;28;21045;-50
2021/09/06 04:44:29;;;;;;;37.33;18.25;;;;;;;13.90;76.64;102447.13;5069246;28;20514;-48
2021/09/06 04:46:55;;;;;;;32.72;16.33;;;;;;;13.91;76.52;102451.50;5066643;28;20028;-51
2021/09/06 04:49:20;;;;;;;29.13;15.40;;;;;;;13.92;76.43;102455.00;5065258;28;20134;-50
2021/09/06 04:51:45;;;;;;;34.22;16.90;;;;;;;13.90;76.67;102455.00;5069544;28;20483;-46
2021/09/06 04:54:11;;;;;;;36.08;17.50;;;;;;;13.87;76.81;102454.91;5068387;28;20570;-51
2021/09/06 04:56:36;;;;;;;35.22;16.48;;;;;;;13.88;76.75;102463.66;5072002;28;20032;-47
2021/09/06 04:59:02;;;;;;;35.55;17.42;;;;;;;13.88;76.76;102458.41;5069110;28;20078;-50
2021/09/06 05:01:27;;;;;;;33.25;16.75;;;;;;;13.89;76.58;102458.47;5070436;28;20051;-51
2021/09/06 05:03:52;;;;;;;33.05;17.13;;;;;;;13.89;76.80;102458.47;5068602;28;20024;-51
2021/09/06 05:06:18;;;;;;;30.85;15.63;;;;;;;13.91;76.58;102463.72;5072866;28;20028;-51
2021/09/06 05:08:43;;;;;;;31.50;16.25;;;;;;;13.93;76.56;102459.41;5068863;28;20070;-48
2021/09/06 05:11:09;;;;;;;33.63;16.05;;;;;;;13.95;77.14;102461.22;5071048;28;20151;-51
2021/09/06 05:13:34;;;;;;;34.17;17.23;;;;;;;13.98;76.80;102465.66;5068702;28;20424;-49
2021/09/06 05:16:00;;;;;;;31.65;15.52;;;;;;;14.02;76.93;102462.28;5056173;28;20539;-49
2021/09/06 05:18:25;;;;;;;36.42;18.52;;;;;;;14.06;76.82;102471.97;5071392;28;20074;-49
2021/09/06 05:20:51;;;;;;;35.00;16.58;;;;;;;14.10;76.77;102465.94;5049805;28;20519;-50
2021/09/06 05:23:17;;;;;;;33.33;17.55;;;;;;;14.14;76.91;102470.44;5066709;28;20036;-47
2021/09/06 05:25:42;;;;;;;35.30;17.02;;;;;;;14.21;76.90;102467.97;5070006;28;20512;-47
2021/09/06 05:28:07;;;;;;;36.38;17.63;;;;;;;14.27;76.90;102475.13;5067386;28;20499;-49
2021/09/06 05:30:33;;;;;;;38.42;17.30;;;;;;;14.33;76.66;102469.13;5069106;28;20024;-48
2021/09/06 05:32:59;;;;;;;35.25;18.17;;;;;;;14.40;76.62;102468.44;5071144;28;20574;-50
2021/09/06 05:35:24;;;;;;;36.10;18.02;;;;;;;14.51;76.77;102473.09;5050542;28;20032;-48
2021/09/06 05:37:50;;;;;;;36.58;18.25;;;;;;;14.63;76.78;102475.13;5072145;28;20498;-52
2021/09/06 05:40:15;;;;;;;38.58;20.08;;;;;;;14.72;76.68;102479.66;5070265;28;20277;-50
2021/09/06 05:42:40;;;;;;;38.90;19.55;;;;;;;14.81;76.69;102485.13;5069057;28;20110;-51
2021/09/06 05:45:06;;;;;;;39.00;19.13;;;;;;;14.86;76.51;102486.09;5068541;28;20073;-51
2021/09/06 05:47:32;;;;;;;38.22;20.10;;;;;;;14.95;76.32;102483.66;5068890;28;20705;-50
2021/09/06 05:49:57;;;;;;;37.53;19.40;;;;;;;15.06;76.03;102482.16;5071131;28;20036;-48
2021/09/06 05:52:22;;;;;;;39.35;20.00;;;;;;;15.18;76.28;102498.19;5067558;28;20016;-52
2021/09/06 05:54:48;;;;;;;41.10;21.92;;;;;;;15.32;75.74;102487.91;5070375;28;20046;-48
2021/09/06 05:57:13;;;;;;;40.72;21.48;;;;;;;15.39;75.11;102490.69;5068724;28;20104;-49
2021/09/06 05:59:38;;;;;;;44.47;22.70;;;;;;;15.54;75.89;102486.63;5067512;28;20043;-51
2021/09/06 06:02:04;;;;;;;39.50;20.95;;;;;;;15.69;75.81;102500.06;5064720;28;20024;-49
2021/09/06 06:04:29;;;;;;;37.17;19.27;;;;;;;15.86;75.58;102497.75;5051674;28;20020;-54
2021/09/06 06:06:55;;;;;;;39.58;19.33;;;;;;;16.19;75.76;102493.91;5069117;28;20035;-52
2021/09/06 06:09:20;;;;;;;30.85;18.13;;;;;;;16.77;75.61;102499.22;5066257;28;20024;-50
2021/09/06 06:11:46;;;;;;;27.63;16.70;;;;;;;17.40;72.81;102496.47;5055772;28;20036;-52
2021/09/06 06:14:12;;;;;;;26.65;16.23;;;;;;;18.04;69.55;102503.31;5066329;28;20031;-51
2021/09/06 06:16:37;;;;;;;27.88;16.40;;;;;;;18.56;65.88;102506.34;5034717;28;20036;-47
2021/09/06 06:19:03;;;;;;;28.88;16.23;;;;;;;19.34;65.16;102508.50;5068688;28;20059;-51
2021/09/06 06:21:29;;;;;;;23.52;14.80;;;;;;;19.98;61.74;102510.41;5068128;28;20449;-50
2021/09/06 06:23:54;;;;;;;26.77;16.40;;;;;;;20.35;60.71;102516.63;5068377;28;20122;-51
2021/09/06 06:26:20;;;;;;;24.33;15.63;;;;;;;20.66;60.19;102515.69;5067975;28;20032;-47
2021/09/06 06:28:45;;;;;;;24.73;15.60;;;;;;;21.13;57.83;102504.03;5052356;28;20396;-51
2021/09/06 06:31:11;;;;;;;26.13;16.30;;;;;;;21.27;57.57;102504.91;5069436;28;20336;-48
2021/09/06 06:33:36;;;;;;;23.13;14.98;;;;;;;21.30;56.92;102508.41;5069622;28;20062;-46
2021/09/06 06:36:03;;;;;;;23.60;14.77;;;;;;;21.71;56.86;102502.00;5072993;28;20048;-47
2021/09/06 06:38:28;;;;;;;22.30;14.80;;;;;;;21.95;55.35;102506.25;5064062;28;20491;-47
2021/09/06 06:40:54;;;;;;;24.35;15.65;;;;;;;22.17;54.78;102510.50;5068237;28;20077;-50
2021/09/06 06:43:22;;;;;;;24.85;15.55;;;;;;;22.36;54.02;102513.88;5070695;28;20870;-49
2021/09/06 06:45:48;;;;;;;23.45;15.18;;;;;;;22.39;55.07;102516.50;5070207;28;20028;-48
2021/09/06 06:48:13;;;;;;;22.92;15.30;;;;;;;22.35;55.37;102513.00;5065428;28;20411;-48
2021/09/06 06:50:39;;;;;;;23.73;15.55;;;;;;;22.67;53.47;102515.34;5063372;28;20206;-47
2021/09/06 06:53:04;;;;;;;25.50;15.15;;;;;;;22.78;54.02;102515.25;5052107;28;20024;-49
2021/09/06 06:55:29;;;;;;;24.80;15.35;;;;;;;23.14;52.65;102514.81;5069260;28;20120;-51
2021/09/06 06:57:55;;;;;;;24.70;16.30;;;;;;;23.23;53.46;102517.38;5069817;28;20883;-52
2021/09/06 07:00:20;;;;;;;24.30;15.32;;;;;;;23.71;51.87;102518.47;5071505;28;20031;-49
2021/09/06 07:02:46;;;;;;;25.98;16.10;;;;;;;23.69;51.01;102520.28;5050890;28;20043;-49
2021/09/06 07:05:12;;;;;;;31.23;18.23;;;;;;;23.67;52.51;102516.75;5068519;28;20432;-48
2021/09/06 07:07:38;;;;;;;27.98;17.52;;;;;;;23.62;52.07;102518.59;5065898;28;20054;-52
2021/09/06 07:10:04;;;;;;;29.17;17.63;;;;;;;24.21;50.45;102520.34;5066855;28;20032;-49
2021/09/06 07:12:30;;;;;;;35.42;18.50;;;;;;;24.27;51.02;102516.72;5068918;28;20395;-46
2021/09/06 07:14:55;;;;;;;29.00;18.40;;;;;;;25.04;49.57;102519.72;5065941;28;20514;-50
2021/09/06 07:17:20;;;;;;;29.20;18.33;;;;;;;24.77;48.71;102529.09;5069726;28;20136;-51
2021/09/06 07:19:46;;;;;;;31.50;17.88;;;;;;;24.01;50.57;102527.78;5064305;28;20535;-51
2021/09/06 07:22:11;;;;;;;29.88;18.45;;;;;;;23.88;51.32;102528.00;5067117;28;20485;-49
2021/09/06 07:24:37;;;;;;;28.67;18.60;;;;;;;24.29;50.35;102520.22;5068124;28;20668;-46
2021/09/06 07:27:02;;;;;;;29.33;18.00;;;;;;;25.11;48.94;102531.13;5068099;28;20490;-47
2021/09/06 07:29:28;;;;;;;27.08;17.75;;;;;;;26.31;44.54;102528.38;5067256;28;20450;-50
2021/09/06 07:31:53;;;;;;;30.77;18.65;;;;;;;25.91;46.02;102528.47;5066957;28;20028;-52
2021/09/06 07:34:19;;;;;;;27.80;17.85;;;;;;;25.80;46.38;102532.25;5069334;28;20031;-50
2021/09/06 07:36:44;;;;;;;27.40;18.17;;;;;;;25.30;48.18;102533.41;5068606;28;20020;-47
2021/09/06 07:39:11;;;;;;;25.98;18.00;;;;;;;25.47;48.21;102535.69;5063513;28;20032;-52
2021/09/06 07:41:36;;;;;;;26.95;18.27;;;;;;;25.34;48.62;102535.06;5068520;28;20039;-49
2021/09/06 07:44:02;;;;;;;27.50;18.17;;;;;;;25.30;47.22;102536.06;5065434;28;20020;-48
2021/09/06 07:46:27;;;;;;;31.67;18.73;;;;;;;24.75;49.43;102543.38;5069265;28;20027;-48
2021/09/06 07:48:53;;;;;;;29.73;18.80;;;;;;;24.75;48.68;102557.59;5061379;28;20160;-53
2021/09/06 07:51:18;;;;;;;28.55;18.38;;;;;;;24.36;50.23;102556.53;5066477;28;20036;-51
2021/09/06 07:53:45;;;;;;;30.33;19.67;;;;;;;23.94;50.71;102555.41;5070796;28;20395;-48
2021/09/06 07:56:10;;;;;;;29.70;19.27;;;;;;;23.81;53.08;102556.50;5069264;28;20079;-49
2021/09/06 07:58:35;;;;;;;32.28;19.50;;;;;;;23.61;53.77;102562.09;5068517;28;20069;-53
2021/09/06 08:01:01;;;;;;;29.92;19.08;;;;;;;23.25;54.26;102555.47;5049365;28;20127;-48
2021/09/06 08:03:26;;;;;;;37.38;20.05;;;;;;;23.06;54.76;102561.91;5066264;28;20107;-49
2021/09/06 08:05:51;;;;;;;33.10;20.38;;;;;;;23.12;54.79;102563.59;5050937;28;20078;-48
2021/09/06 08:08:18;;;;;;;30.30;18.83;;;;;;;23.30;54.09;102564.25;5064157;28;20111;-48
2021/09/06 08:10:44;;;;;;;31.60;18.52;;;;;;;23.31;52.70;102573.13;5062981;28;20024;-52
2021/09/06 08:13:09;;;;;;;26.30;17.35;;;;;;;23.55;52.96;102571.94;5058240;28;20095;-49
2021/09/06 08:15:35;;;;;;;30.30;18.83;;;;;;;23.51;52.46;102576.44;5068370;28;20866;-51
2021/09/06 08:18:00;;;;;;;33.00;18.92;;;;;;;23.55;52.81;102585.25;5049462;28;20456;-50
2021/09/06 08:20:25;;;;;;;33.35;19.00;;;;;;;23.67;51.08;102590.44;5064231;28;20028;-49
2021/09/06 08:22:51;;;;;;;32.60;18.20;;;;;;;23.47;51.77;102592.50;5057362;28;20146;-49
2021/09/06 08:25:16;;;;;;;32.53;17.95;;;;;;;23.82;52.30;102593.78;5066293;28;20471;-48
2021/09/06 08:27:43;;;;;;;30.77;18.27;;;;;;;23.96;51.42;102598.03;5068844;28;20392;-50
2021/09/06 08:30:09;;;;;;;32.08;18.15;;;;;;;23.76;52.21;102593.88;5055166;28;20039;-50
2021/09/06 08:32:35;;;;;;;29.90;18.40;;;;;;;23.73;53.15;102593.88;5069034;28;20395;-47
2021/09/06 08:35:01;;;;;;;28.77;18.48;;;;;;;23.88;51.92;102602.56;5055765;28;20040;-52
2021/09/06 08:37:26;;;;;;;32.95;17.67;;;;;;;24.07;51.36;102604.94;5069261;28;20035;-52
2021/09/06 08:39:51;;;;;;;40.50;17.17;;;;;;;23.97;52.48;102603.31;5070220;28;20036;-47
2021/09/06 08:42:18;;;;;;;31.40;18.30;;;;;;;24.01;52.94;102606.81;5070767;28;20115;-52
2021/09/06 08:44:44;;;;;;;28.33;17.45;;;;;;;23.72;52.95;102599.25;5071099;28;20020;-53
2021/09/06 08:47:10;;;;;;;27.55;18.65;;;;;;;23.75;53.01;102597.41;5066575;28;20335;-52
2021/09/06 08:49:36;;;;;;;26.17;16.40;;;;;;;24.11;51.39;102601.31;5072186;28;20764;-50
2021/09/06 08:52:01;;;;;;;26.67;17.65;;;;;;;24.09;51.53;102603.13;5069506;28;20107;-49
2021/09/06 08:54:27;;;;;;;25.95;17.05;;;;;;;24.16;52.35;102599.47;5067444;28;20538;-49
2021/09/06 08:56:52;;;;;;;28.40;16.73;;;;;;;24.18;50.16;102602.09;5073883;28;20089;-53
2021/09/06 08:59:19;;;;;;;28.80;16.45;;;;;;;24.03;54.08;102605.03;5050967;28;20044;-51
2021/09/06 09:01:48;;;;;;;26.35;16.05;;;;;;;24.26;50.85;102608.25;5047650;28;20032;-48
2021/09/06 09:04:26;;;;;;;24.42;16.45;;;;;;;24.50;50.89;102614.97;5072838;28;20078;-53
2021/09/06 09:07:02;;;;;;;23.73;15.20;;;;;;;24.52;53.51;102608.66;5047670;28;20028;-47
2021/09/06 09:09:29;;;;;;;21.95;14.70;;;;;;;24.43;48.07;102606.19;5070635;28;20039;-50
2021/09/06 09:12:12;;;;;;;26.30;14.70;;;;;;;24.76;48.64;102611.84;5044755;28;20289;-47
2021/09/06 09:14:41;;;;;;;22.98;14.38;;;;;;;24.74;47.81;102613.66;5054181;28;20436;-52
2021/09/06 09:17:07;;;;;;;21.85;13.27;;;;;;;24.91;49.09;102615.13;5069396;28;20066;-50
2021/09/06 09:19:33;;;;;;;22.50;13.80;;;;;;;24.86;48.35;102600.97;5068338;28;20032;-51
2021/09/06 09:22:03;;;;;;;22.60;14.05;;;;;;;25.01;46.77;102594.47;5075656;28;20318;-48
2021/09/06 09:24:28;;;;;;;23.52;14.32;;;;;;;25.26;48.51;102595.75;5052775;28;20024;-49
2021/09/06 09:27:01;;;;;;;23.08;14.02;;;;;;;25.01;51.96;102594.47;5072563;28;20351;-47
2021/09/06 09:29:28;;;;;;;22.30;13.70;;;;;;;25.23;45.87;102600.28;5068905;28;20435;-47
2021/09/06 09:31:57;;;;;;;24.42;14.38;;;;;;;25.19;48.99;102596.78;5071310;28;20055;-49
2021/09/06 09:34:24;;;;;;;26.08;15.90;;;;;;;25.04;46.27;102597.09;5075185;28;20064;-50
2021/09/06 09:36:52;;;;;;;22.63;13.90;;;;;;;25.24;46.83;102600.25;5070307;28;20431;-47
2021/09/06 09:39:19;;;;;;;21.42;13.45;;;;;;;25.25;49.23;102595.81;5031885;28;20040;-48
2021/09/06 09:41:46;;;;;;;22.30;13.82;;;;;;;25.30;45.53;102591.25;5055719;28;20035;-48
2021/09/06 09:44:21;;;;;;;18.40;12.65;;;;;;;25.17;47.80;102597.75;5072145;28;20058;-50
2021/09/06 09:47:02;;;;;;;21.25;12.27;;;;;;;25.10;45.93;102590.75;5068228;28;20032;-48
2021/09/06 09:49:30;;;;;;;19.92;13.00;;;;;;;25.35;45.56;102595.56;5052726;28;20047;-48
2021/09/06 09:51:55;;;;;;;18.83;11.57;;;;;;;25.40;44.17;102593.69;5071522;28;20033;-47
2021/09/06 09:54:21;;;;;;;20.60;10.75;;;;;;;25.52;43.91;102597.88;5069003;28;20580;-50
2021/09/06 09:56:47;;;;;;;15.40;10.15;;;;;;;25.92;46.27;102597.91;5074376;28;20055;-51
2021/09/06 09:59:16;;;;;;;17.92;10.50;;;;;;;26.12;47.58;102597.44;5046646;28;20031;-49
2021/09/06 10:01:46;;;;;;;21.20;10.88;;;;;;;25.81;43.01;102586.56;5070166;28;20024;-48
2021/09/06 10:04:13;;;;;;;15.60;9.93;;;;;;;25.93;44.81;102586.28;5069107;28;20024;-47
2021/09/06 10:06:38;;;;;;;17.20;10.07;;;;;;;26.11;46.04;102575.16;5056077;28;20036;-49
2021/09/06 10:09:05;;;;;;;15.35;10.13;;;;;;;26.16;41.99;102577.75;5053076;28;20031;-47
2021/09/06 10:11:38;;;;;;;15.48;9.95;;;;;;;26.12;42.77;102573.38;5068004;28;20024;-50
2021/09/06 10:14:13;;;;;;;15.98;9.93;;;;;;;25.93;39.65;102570.25;5065786;28;20032;-52
2021/09/06 10:16:39;;;;;;;15.90;9.63;;;;;;;26.05;39.37;102577.09;5069827;28;20028;-50
2021/09/06 10:19:07;;;;;;;15.73;10.23;;;;;;;25.89;39.96;102578.38;5051277;28;20063;-47
2021/09/06 10:21:44;;;;;;;14.10;9.13;;;;;;;26.13;43.17;102573.34;5067877;28;20032;-50
2021/09/06 10:24:17;;;;;;;18.35;11.05;;;;;;;25.73;41.11;102576.09;5070982;28;20431;-47
2021/09/06 10:26:44;;;;;;;19.73;11.38;;;;;;;25.69;41.43;102576.16;5069394;28;20553;-49
2021/09/06 10:29:18;;;;;;;19.13;11.00;;;;;;;25.95;43.69;102581.81;5063790;28;20557;-51
2021/09/06 10:31:44;;;;;;;14.15;10.10;;;;;;;26.13;45.31;102584.03;5070462;28;20407;-48
2021/09/06 10:34:20;;;;;;;21.15;12.20;;;;;;;26.21;44.00;102575.84;5065509;28;20082;-49
2021/09/06 10:36:54;;;;;;;19.85;12.20;;;;;;;26.15;42.75;102574.19;5064938;28;20047;-50
2021/09/06 10:39:20;;;;;;;17.77;10.70;;;;;;;26.44;42.25;102581.50;5071147;28;20063;-49
2021/09/06 10:41:49;;;;;;;19.80;12.48;;;;;;;26.59;42.37;102577.56;5065440;28;20028;-51
2021/09/06 10:44:14;;;;;;;18.90;11.93;;;;;;;26.47;41.59;102588.59;5070718;28;20483;-51
2021/09/06 10:46:40;;;;;;;17.85;12.00;;;;;;;26.45;40.62;102579.72;5066647;28;20115;-51
2021/09/06 10:49:06;;;;;;;18.90;12.23;;;;;;;26.42;40.91;102571.75;5068418;28;20038;-49
2021/09/06 10:51:34;;;;;;;18.10;12.13;;;;;;;26.47;39.98;102569.88;5072300;28;20371;-47
2021/09/06 10:54:02;;;;;;;18.73;11.38;;;;;;;26.70;40.93;102571.91;5069354;28;20036;-51
2021/09/06 10:56:30;;;;;;;18.40;11.70;;;;;;;26.75;40.35;102570.88;5070739;28;20039;-51
2021/09/06 10:58:56;;;;;;;17.48;11.88;;;;;;;26.95;39.18;102571.25;5068522;28;20448;-49
2021/09/06 11:01:22;;;;;;;19.88;11.57;;;;;;;26.94;40.88;102564.13;5068515;28;20058;-48
2021/09/06 11:03:50;;;;;;;18.90;11.07;;;;;;;27.14;41.08;102560.00;5067495;28;20031;-48